Time;durP1;ratioP1;P1;durP2;ratioP2;P2;SDS_P1;SDS_P2;PMS_P1;PMS_P2;Temp;Humidity;BMP_temperature;BMP_pressure;BME280_temperature;BME280_humidity;BME280_pressure;Samples;Min_cycle;Max_cycle;Signal;HPM_P1;HPM_P2
2022/02/19 00:00:00;;;;;;;;;;;18.40;40.30;;;;;;5092804;28;19920;-62
2022/02/19 00:02:26;;;;;;;;;;;18.40;40.30;;;;;;5093028;28;19922;-61
2022/02/19 00:04:51;;;;;;;;;;;18.40;40.30;;;;;;5074913;28;19908;-62
2022/02/19 00:07:17;;;;;;;;;;;18.40;40.30;;;;;;5092902;28;19912;-62
2022/02/19 00:09:42;;;;;;;;;;;18.40;40.40;;;;;;5092794;28;19908;-61
2022/02/19 00:12:08;;;;;;;;;;;18.40;40.30;;;;;;5093022;28;19953;-62
2022/02/19 00:14:33;;;;;;;;;;;18.40;40.30;;;;;;5092843;28;19916;-62
2022/02/19 00:16:59;;;;;;;;;;;18.40;40.20;;;;;;5092787;28;19954;-62
2022/02/19 00:19:24;;;;;;;;;;;18.40;40.20;;;;;;5092848;28;19981;-62
2022/02/19 00:21:50;;;;;;;;;;;18.40;40.20;;;;;;5092620;28;19977;-62
2022/02/19 00:24:15;;;;;;;;;;;18.40;40.10;;;;;;5092681;28;19916;-62
2022/02/19 00:26:41;;;;;;;;;;;18.40;40.20;;;;;;5092639;28;19908;-62
2022/02/19 00:29:07;;;;;;;;;;;18.40;40.20;;;;;;5092715;28;19953;-62
2022/02/19 00:31:32;;;;;;;;;;;18.40;40.20;;;;;;5093043;28;19916;-62
2022/02/19 00:33:58;;;;;;;;;;;18.30;40.30;;;;;;5096512;28;19908;-62
2022/02/19 00:36:23;;;;;;;;;;;18.40;40.20;;;;;;5078223;28;19915;-62
2022/02/19 00:38:49;;;;;;;;;;;18.30;40.20;;;;;;5096066;28;19977;-61
2022/02/19 00:41:14;;;;;;;;;;;18.40;40.10;;;;;;5095964;28;20343;-62
2022/02/19 00:43:41;;;;;;;;;;;18.30;40.30;;;;;;5095892;28;19916;-62
2022/02/19 00:46:06;;;;;;;;;;;18.30;40.20;;;;;;5095927;28;19923;-62
2022/02/19 00:48:32;;;;;;;;;;;18.30;40.10;;;;;;5095808;28;19908;-62
2022/02/19 00:50:57;;;;;;;;;;;18.30;40.20;;;;;;5095873;28;19907;-63
2022/02/19 00:53:23;;;;;;;;;;;18.30;40.20;;;;;;5095789;28;19958;-62
2022/02/19 00:55:48;;;;;;;;;;;18.30;40.10;;;;;;5095773;28;19908;-62
2022/02/19 00:58:13;;;;;;;;;;;18.30;40.10;;;;;;5095781;28;19956;-62
2022/02/19 01:00:39;;;;;;;;;;;18.30;40.20;;;;;;5077436;28;19927;-62
2022/02/19 01:03:04;;;;;;;;;;;18.30;40.10;;;;;;5095694;28;20356;-62
2022/02/19 01:05:30;;;;;;;;;;;18.30;40.10;;;;;;5095852;28;19952;-61
2022/02/19 01:07:55;;;;;;;;;;;18.30;40.20;;;;;;5077501;28;20417;-62
2022/02/19 01:10:21;;;;;;;;;;;18.30;40.10;;;;;;5095714;28;19915;-61
2022/02/19 01:12:47;;;;;;;;;;;18.30;40.10;;;;;;5095491;28;19914;-61
2022/02/19 01:15:12;;;;;;;;;;;18.30;40.00;;;;;;5095409;28;20046;-62
2022/02/19 01:17:39;;;;;;;;;;;18.30;40.10;;;;;;5095318;28;19942;-62
2022/02/19 01:20:06;;;;;;;;;;;18.30;40.10;;;;;;5095357;28;20389;-61
2022/02/19 01:22:31;;;;;;;;;;;18.30;40.10;;;;;;5095110;28;20034;-62
2022/02/19 01:24:56;;;;;;;;;;;18.30;40.10;;;;;;5095442;28;20007;-61
2022/02/19 01:27:22;;;;;;;;;;;18.30;40.00;;;;;;5095207;28;19908;-61
2022/02/19 01:29:47;;;;;;;;;;;18.30;40.10;;;;;;5095165;28;19908;-62
2022/02/19 01:32:13;;;;;;;;;;;18.30;40.10;;;;;;5076841;28;19919;-62
2022/02/19 01:34:38;;;;;;;;;;;18.20;40.10;;;;;;5095029;28;19908;-61
2022/02/19 01:37:04;;;;;;;;;;;18.20;40.10;;;;;;5094862;28;19916;-61
2022/02/19 01:39:29;;;;;;;;;;;18.20;40.10;;;;;;5094861;28;19916;-62
2022/02/19 01:41:55;;;;;;;;;;;18.20;40.20;;;;;;5094952;28;19963;-62
2022/02/19 01:44:21;;;;;;;;;;;18.30;40.20;;;;;;5094369;28;19908;-62
2022/02/19 01:46:46;;;;;;;;;;;18.20;39.90;;;;;;5094734;28;19908;-61
2022/02/19 01:49:11;;;;;;;;;;;18.20;40.10;;;;;;5095205;28;19935;-61
2022/02/19 01:51:38;;;;;;;;;;;18.20;40.10;;;;;;5094847;28;19908;-61
2022/02/19 01:54:07;;;;;;;;;;;18.20;40.10;;;;;;5094523;28;19912;-61
2022/02/19 01:56:33;;;;;;;;;;;18.20;40.10;;;;;;5094613;28;19930;-62
2022/02/19 01:58:58;;;;;;;;;;;18.20;40.10;;;;;;5094334;28;20418;-61
2022/02/19 02:01:24;;;;;;;;;;;18.20;40.00;;;;;;5094518;28;19991;-62
2022/02/19 02:03:49;;;;;;;;;;;18.20;40.10;;;;;;5094397;28;20363;-62
2022/02/19 02:06:17;;;;;;;;;;;18.20;40.00;;;;;;5094375;28;19916;-61
2022/02/19 02:08:42;;;;;;;;;;;18.20;39.90;;;;;;5094416;28;19962;-61
2022/02/19 02:11:08;;;;;;;;;;;18.20;40.00;;;;;;5094607;28;20010;-62
2022/02/19 02:13:34;;;;;;;;;;;18.20;40.10;;;;;;5094402;28;19939;-61
2022/02/19 02:15:59;;;;;;;;;;;18.20;40.00;;;;;;5094424;28;19908;-61
2022/02/19 02:18:25;;;;;;;;;;;18.20;39.80;;;;;;5076079;28;19915;-61
2022/02/19 02:20:50;;;;;;;;;;;18.20;40.10;;;;;;5094200;28;19908;-61
2022/02/19 02:23:16;;;;;;;;;;;18.20;40.00;;;;;;5094034;28;19935;-62
2022/02/19 02:25:43;;;;;;;;;;;18.10;39.90;;;;;;5094116;28;20046;-61
2022/02/19 02:28:09;;;;;;;;;;;18.10;40.00;;;;;;5094065;28;19978;-62
2022/02/19 02:30:36;;;;;;;;;;;18.10;40.00;;;;;;5094243;28;19908;-61
2022/02/19 02:33:08;;;;;;;;;;;18.10;39.80;;;;;;5093919;28;19925;-61
2022/02/19 02:35:34;;;;;;;;;;;18.10;40.00;;;;;;5093750;28;19920;-61
2022/02/19 02:38:00;;;;;;;;;;;18.10;40.00;;;;;;5093762;28;19940;-61
2022/02/19 02:40:26;;;;;;;;;;;18.10;40.00;;;;;;5093836;28;19996;-61
2022/02/19 02:42:51;;;;;;;;;;;18.10;40.00;;;;;;5093733;28;19916;-61
2022/02/19 02:45:17;;;;;;;;;;;18.10;40.00;;;;;;5093752;28;19943;-61
2022/02/19 02:47:43;;;;;;;;;;;18.10;39.90;;;;;;5093593;28;20004;-61
2022/02/19 02:50:09;;;;;;;;;;;18.10;39.90;;;;;;5093787;28;19912;-61
2022/02/19 02:52:35;;;;;;;;;;;18.10;39.80;;;;;;5093706;28;19962;-61
2022/02/19 02:55:01;;;;;;;;;;;18.10;40.00;;;;;;5092901;28;19908;-62
2022/02/19 02:57:27;;;;;;;;;;;18.10;39.90;;;;;;5093349;28;19908;-61
2022/02/19 02:59:52;;;;;;;;;;;18.10;40.00;;;;;;5093348;28;20375;-61
2022/02/19 03:02:18;;;;;;;;;;;18.10;39.90;;;;;;5093207;28;19916;-61
2022/02/19 03:04:43;;;;;;;;;;;18.10;40.00;;;;;;5093472;28;20335;-61
2022/02/19 03:07:09;;;;;;;;;;;18.10;40.00;;;;;;5093278;28;20378;-61
2022/02/19 03:09:34;;;;;;;;;;;18.10;39.90;;;;;;5093129;28;19908;-61
2022/02/19 03:11:59;;;;;;;;;;;18.10;40.00;;;;;;5093284;28;19915;-61
2022/02/19 03:14:25;;;;;;;;;;;18.10;39.90;;;;;;5093475;28;20355;-61
2022/02/19 03:16:50;;;;;;;;;;;18.10;40.00;;;;;;5093041;28;20372;-61
2022/02/19 03:19:16;;;;;;;;;;;18.00;40.00;;;;;;5093366;28;20375;-61
2022/02/19 03:21:41;;;;;;;;;;;18.00;40.00;;;;;;5093283;28;19977;-61
2022/02/19 03:24:07;;;;;;;;;;;18.00;40.00;;;;;;5093053;28;20313;-61
2022/02/19 03:26:32;;;;;;;;;;;18.00;40.10;;;;;;5093015;28;19908;-61
2022/02/19 03:28:58;;;;;;;;;;;18.00;39.90;;;;;;5092815;28;19908;-61
2022/02/19 03:31:24;;;;;;;;;;;18.00;39.90;;;;;;5092886;28;19912;-61
2022/02/19 03:33:50;;;;;;;;;;;18.00;40.00;;;;;;5092726;28;20367;-61
2022/02/19 03:36:15;;;;;;;;;;;18.00;40.00;;;;;;5092829;28;19967;-60
2022/02/19 03:38:41;;;;;;;;;;;18.00;39.90;;;;;;5092709;28;20206;-60
2022/02/19 03:41:06;;;;;;;;;;;18.00;40.00;;;;;;5074599;28;19912;-61
2022/02/19 03:43:32;;;;;;;;;;;18.00;40.00;;;;;;5092938;28;19917;-61
2022/02/19 03:45:57;;;;;;;;;;;18.00;39.90;;;;;;5092789;28;19908;-61
2022/02/19 03:48:23;;;;;;;;;;;18.00;40.00;;;;;;5092941;28;19912;-60
2022/02/19 03:50:48;;;;;;;;;;;18.00;39.90;;;;;;5092892;28;20320;-61
2022/02/19 03:53:14;;;;;;;;;;;18.00;40.00;;;;;;5092733;28;19920;-61
2022/02/19 03:55:39;;;;;;;;;;;18.00;39.90;;;;;;5092955;28;19908;-60
2022/02/19 03:58:05;;;;;;;;;;;18.00;39.90;;;;;;5092880;28;19914;-61
2022/02/19 04:00:30;;;;;;;;;;;18.00;39.90;;;;;;5092670;28;20313;-61
2022/02/19 04:02:56;;;;;;;;;;;18.00;39.80;;;;;;5093121;28;20233;-61
2022/02/19 04:05:21;;;;;;;;;;;18.00;39.80;;;;;;5092669;28;19915;-61
2022/02/19 04:07:47;;;;;;;;;;;18.00;39.90;;;;;;5095365;28;19914;-61
2022/02/19 04:10:13;;;;;;;;;;;18.00;39.80;;;;;;5078758;28;20333;-61
2022/02/19 04:12:39;;;;;;;;;;;18.00;39.80;;;;;;5096849;28;19998;-61
2022/02/19 04:15:04;;;;;;;;;;;18.00;39.90;;;;;;5096760;28;19908;-61
2022/02/19 04:17:30;;;;;;;;;;;18.00;39.80;;;;;;5096689;28;19928;-61
2022/02/19 04:19:55;;;;;;;;;;;18.00;39.80;;;;;;5096401;28;20377;-61
2022/02/19 04:22:21;;;;;;;;;;;18.00;39.80;;;;;;5096402;28;20205;-61
2022/02/19 04:24:47;;;;;;;;;;;18.00;39.80;;;;;;5096270;28;19917;-61
2022/02/19 04:27:13;;;;;;;;;;;18.00;39.70;;;;;;5096234;28;19908;-61
2022/02/19 04:29:38;;;;;;;;;;;18.00;39.80;;;;;;5096166;28;19915;-61
2022/02/19 04:32:05;;;;;;;;;;;18.00;39.70;;;;;;5096071;28;20029;-61
2022/02/19 04:34:30;;;;;;;;;;;18.00;39.80;;;;;;5077813;28;19908;-60
2022/02/19 04:36:56;;;;;;;;;;;18.00;39.80;;;;;;5096016;28;19915;-61
2022/02/19 04:39:21;;;;;;;;;;;18.00;39.80;;;;;;5096332;28;19959;-60
2022/02/19 04:41:47;;;;;;;;;;;18.00;39.70;;;;;;5096003;28;20006;-62
2022/02/19 04:44:12;;;;;;;;;;;18.00;39.80;;;;;;5096148;28;19943;-62
2022/02/19 04:46:38;;;;;;;;;;;18.00;39.80;;;;;;5077748;28;19929;-62
2022/02/19 04:49:03;;;;;;;;;;;18.00;39.70;;;;;;5096011;28;19922;-61
2022/02/19 04:51:29;;;;;;;;;;;18.00;39.70;;;;;;5096024;28;19934;-61
2022/02/19 04:53:54;;;;;;;;;;;18.00;39.70;;;;;;5096298;28;20386;-61
2022/02/19 04:56:20;;;;;;;;;;;18.00;39.80;;;;;;5095948;28;19908;-61
2022/02/19 04:58:47;;;;;;;;;;;18.00;39.90;;;;;;5095791;28;19928;-61
2022/02/19 05:01:12;;;;;;;;;;;18.00;39.70;;;;;;5095664;28;19908;-61
2022/02/19 05:03:38;;;;;;;;;;;18.00;39.80;;;;;;5095441;28;19939;-61
2022/02/19 05:06:04;;;;;;;;;;;18.00;39.90;;;;;;5095849;28;19918;-62
2022/02/19 05:08:29;;;;;;;;;;;17.90;39.70;;;;;;5095764;28;19916;-62
2022/02/19 05:10:55;;;;;;;;;;;18.00;39.70;;;;;;5095704;28;19937;-62
2022/02/19 05:13:20;;;;;;;;;;;18.00;39.70;;;;;;5095617;28;20280;-62
2022/02/19 05:15:46;;;;;;;;;;;18.00;39.70;;;;;;5095684;28;19915;-62
2022/02/19 05:18:14;;;;;;;;;;;18.00;39.60;;;;;;5094692;28;20348;-61
2022/02/19 05:20:39;;;;;;;;;;;18.00;39.60;;;;;;5095326;28;20264;-61
2022/02/19 05:23:05;;;;;;;;;;;18.00;39.50;;;;;;5095266;28;19923;-62
2022/02/19 05:25:30;;;;;;;;;;;18.00;39.50;;;;;;5095669;28;20260;-61
2022/02/19 05:27:55;;;;;;;;;;;18.10;39.50;;;;;;5095252;28;19915;-61
2022/02/19 05:30:21;;;;;;;;;;;18.10;39.50;;;;;;5095353;28;19946;-61
2022/02/19 05:32:46;;;;;;;;;;;18.10;39.40;;;;;;5095074;28;19908;-61
2022/02/19 05:35:12;;;;;;;;;;;18.10;39.50;;;;;;5095045;28;19908;-61
2022/02/19 05:37:37;;;;;;;;;;;18.10;39.40;;;;;;5095018;28;19912;-61
2022/02/19 05:40:04;;;;;;;;;;;18.10;39.30;;;;;;5095057;28;19961;-62
2022/02/19 05:42:29;;;;;;;;;;;18.10;39.40;;;;;;5094784;28;19916;-61
2022/02/19 05:44:55;;;;;;;;;;;18.10;39.40;;;;;;5094963;28;19914;-61
2022/02/19 05:47:20;;;;;;;;;;;18.10;39.30;;;;;;5095025;28;20344;-61
2022/02/19 05:49:46;;;;;;;;;;;18.20;39.30;;;;;;5094845;28;19912;-61
2022/02/19 05:52:12;;;;;;;;;;;18.10;39.30;;;;;;5094891;28;19916;-61
2022/02/19 05:54:37;;;;;;;;;;;18.20;39.30;;;;;;5094948;28;20308;-61
2022/02/19 05:57:02;;;;;;;;;;;18.10;39.30;;;;;;5094592;28;19962;-62
2022/02/19 05:59:28;;;;;;;;;;;18.10;39.30;;;;;;5076391;28;20387;-61
2022/02/19 06:01:54;;;;;;;;;;;18.20;39.30;;;;;;5094401;28;19972;-61
2022/02/19 06:04:19;;;;;;;;;;;18.20;39.30;;;;;;5094512;28;19908;-61
2022/02/19 06:06:45;;;;;;;;;;;18.20;39.30;;;;;;5094272;28;19914;-61
2022/02/19 06:09:10;;;;;;;;;;;18.20;39.30;;;;;;5094357;28;20461;-61
2022/02/19 06:11:35;;;;;;;;;;;18.20;39.30;;;;;;5094350;28;20314;-61
2022/02/19 06:14:01;;;;;;;;;;;18.20;39.30;;;;;;5075968;28;19908;-61
2022/02/19 06:16:26;;;;;;;;;;;18.20;39.30;;;;;;5094456;28;19961;-61
2022/02/19 06:18:52;;;;;;;;;;;18.20;39.20;;;;;;5094239;28;19908;-61
2022/02/19 06:21:17;;;;;;;;;;;18.20;39.30;;;;;;5094460;28;19908;-62
2022/02/19 06:23:42;;;;;;;;;;;18.20;39.30;;;;;;5094181;28;20352;-61
2022/02/19 06:26:08;;;;;;;;;;;18.20;39.20;;;;;;5094411;28;20387;-61
2022/02/19 06:28:33;;;;;;;;;;;18.20;39.20;;;;;;5094155;28;20367;-61
2022/02/19 06:30:59;;;;;;;;;;;18.20;39.30;;;;;;5094057;28;20363;-62
2022/02/19 06:33:24;;;;;;;;;;;18.20;39.20;;;;;;5094014;28;19908;-61
2022/02/19 06:35:50;;;;;;;;;;;18.20;39.30;;;;;;5094138;28;19943;-61
2022/02/19 06:38:15;;;;;;;;;;;18.20;39.30;;;;;;5093771;28;20328;-62
2022/02/19 06:40:41;;;;;;;;;;;18.20;39.30;;;;;;5093713;28;19916;-61
2022/02/19 06:43:06;;;;;;;;;;;18.20;39.20;;;;;;5093641;28;19916;-61
2022/02/19 06:45:32;;;;;;;;;;;18.20;39.40;;;;;;5093841;28;19912;-60
2022/02/19 06:47:57;;;;;;;;;;;18.20;39.40;;;;;;5094008;28;19931;-63
2022/02/19 06:50:23;;;;;;;;;;;18.20;39.20;;;;;;5093607;28;19943;-61
2022/02/19 06:52:48;;;;;;;;;;;18.20;39.20;;;;;;5093790;28;19914;-62
2022/02/19 06:55:14;;;;;;;;;;;18.20;39.30;;;;;;5093624;28;19963;-61
2022/02/19 06:57:39;;;;;;;;;;;18.20;39.20;;;;;;5093404;28;19916;-61
2022/02/19 07:00:06;;;;;;;;;;;18.20;39.30;;;;;;5093154;28;20368;-61
2022/02/19 07:02:31;;;;;;;;;;;18.20;39.30;;;;;;5093410;28;19916;-62
2022/02/19 07:04:58;;;;;;;;;;;18.30;39.30;;;;;;5093370;28;20386;-61
2022/02/19 07:07:23;;;;;;;;;;;18.30;39.30;;;;;;5075046;28;19917;-62
2022/02/19 07:09:49;;;;;;;;;;;18.20;39.30;;;;;;5093259;28;20008;-61
2022/02/19 07:12:15;;;;;;;;;;;18.30;39.30;;;;;;5093100;28;19908;-61
2022/02/19 07:14:40;;;;;;;;;;;18.30;39.30;;;;;;5093090;28;19912;-61
2022/02/19 07:17:06;;;;;;;;;;;18.30;39.30;;;;;;5093263;28;19915;-61
2022/02/19 07:19:32;;;;;;;;;;;18.30;39.30;;;;;;5074962;28;19908;-61
2022/02/19 07:21:58;;;;;;;;;;;18.30;39.30;;;;;;5092960;28;19928;-62
2022/02/19 07:24:23;;;;;;;;;;;18.30;39.20;;;;;;5093169;28;19998;-62
2022/02/19 07:26:49;;;;;;;;;;;18.30;39.20;;;;;;5074603;28;19920;-61
2022/02/19 07:29:14;;;;;;;;;;;18.30;39.30;;;;;;5092823;28;19919;-61
2022/02/19 07:31:40;;;;;;;;;;;18.30;39.20;;;;;;5092919;28;19915;-61
2022/02/19 07:34:05;;;;;;;;;;;18.30;39.30;;;;;;5092944;28;19908;-61
2022/02/19 07:36:30;;;;;;;;;;;18.30;39.30;;;;;;5092881;28;19949;-61
2022/02/19 07:38:57;;;;;;;;;;;18.30;39.20;;;;;;5092835;28;19934;-61
2022/02/19 07:41:23;;;;;;;;;;;18.30;39.30;;;;;;5093291;28;19948;-62
2022/02/19 07:43:48;;;;;;;;;;;18.40;39.30;;;;;;5097030;28;20387;-61
2022/02/19 07:46:13;;;;;;;;;;;18.30;39.30;;;;;;5097181;28;19947;-61
2022/02/19 07:48:39;;;;;;;;;;;18.30;39.20;;;;;;5079062;28;20287;-62
2022/02/19 07:59:17;;;;;;;;;;;18.30;39.20;;;;;;5096725;28;19973;-62
2022/02/19 08:01:42;;;;;;;;;;;18.40;39.20;;;;;;5078722;28;19908;-61
2022/02/19 08:04:07;;;;;;;;;;;18.40;39.20;;;;;;5096807;28;19912;-61
2022/02/19 08:06:33;;;;;;;;;;;18.40;39.10;;;;;;5096523;28;19999;-61
2022/02/19 08:08:58;;;;;;;;;;;18.40;39.20;;;;;;5096925;28;19912;-61
2022/02/19 08:11:24;;;;;;;;;;;18.30;39.20;;;;;;5061503;28;20367;-62
2022/02/19 08:13:49;;;;;;;;;;;18.40;39.20;;;;;;5096657;28;20033;-61
2022/02/19 08:16:15;;;;;;;;;;;18.40;39.20;;;;;;5096549;28;20036;-62
2022/02/19 08:18:42;;;;;;;;;;;18.40;39.10;;;;;;5078656;28;19948;-62
2022/02/19 08:21:07;;;;;;;;;;;18.40;39.20;;;;;;5078754;28;19908;-62
2022/02/19 08:23:33;;;;;;;;;;;18.40;39.20;;;;;;5078084;28;20221;-62
2022/02/19 08:25:59;;;;;;;;;;;18.40;39.10;;;;;;5096586;28;20379;-61
2022/02/19 08:28:24;;;;;;;;;;;18.40;39.00;;;;;;5096625;28;19981;-62
2022/02/19 08:30:52;;;;;;;;;;;18.40;39.00;;;;;;5096429;28;19908;-61
2022/02/19 08:33:18;;;;;;;;;;;18.40;39.10;;;;;;5096700;28;19908;-62
2022/02/19 08:35:43;;;;;;;;;;;18.50;39.10;;;;;;5096548;28;19919;-62
2022/02/19 08:38:10;;;;;;;;;;;18.40;39.00;;;;;;5096521;28;20413;-62
2022/02/19 08:40:36;;;;;;;;;;;18.50;39.00;;;;;;5096482;28;19931;-62
2022/02/19 08:43:02;;;;;;;;;;;18.50;39.00;;;;;;5096057;28;20433;-61
2022/02/19 08:45:28;;;;;;;;;;;18.50;39.00;;;;;;5095962;28;19916;-61
2022/02/19 08:48:01;;;;;;;;;;;18.50;38.90;;;;;;5095878;28;19912;-62
2022/02/19 08:50:27;;;;;;;;;;;18.50;38.90;;;;;;5077577;28;19958;-61
2022/02/19 08:52:52;;;;;;;;;;;18.50;38.90;;;;;;5095630;28;20329;-61
2022/02/19 08:55:18;;;;;;;;;;;18.50;38.90;;;;;;5095738;28;19908;-62
2022/02/19 08:57:46;;;;;;;;;;;18.50;38.80;;;;;;5095609;28;19966;-62
2022/02/19 09:00:13;;;;;;;;;;;18.50;38.80;;;;;;5095564;28;20011;-61
2022/02/19 09:02:39;;;;;;;;;;;18.50;38.70;;;;;;5095539;28;19916;-62
2022/02/19 09:05:05;;;;;;;;;;;18.50;38.80;;;;;;5077241;28;19923;-62
2022/02/19 09:07:33;;;;;;;;;;;18.60;38.80;;;;;;5095599;28;19909;-62
2022/02/19 09:09:58;;;;;;;;;;;18.60;38.80;;;;;;5095593;28;19908;-62
2022/02/19 09:12:24;;;;;;;;;;;18.60;38.80;;;;;;5095508;28;20414;-61
2022/02/19 09:14:49;;;;;;;;;;;18.60;38.80;;;;;;5077708;28;19947;-62
2022/02/19 09:17:15;;;;;;;;;;;18.60;38.80;;;;;;5077217;28;19928;-60
2022/02/19 09:19:40;;;;;;;;;;;18.60;38.80;;;;;;5095689;28;19912;-62
2022/02/19 09:22:06;;;;;;;;;;;18.60;38.70;;;;;;5095556;28;19923;-61
2022/02/19 09:24:31;;;;;;;;;;;18.50;38.80;;;;;;5095680;28;19908;-62
2022/02/19 09:26:57;;;;;;;;;;;18.60;38.70;;;;;;5095283;28;19912;-61
2022/02/19 09:29:23;;;;;;;;;;;18.60;38.70;;;;;;5094765;28;19915;-61
2022/02/19 09:31:49;;;;;;;;;;;18.60;38.60;;;;;;5094998;28;19914;-61
2022/02/19 09:34:14;;;;;;;;;;;18.60;38.60;;;;;;5094984;28;19943;-61
2022/02/19 09:36:40;;;;;;;;;;;18.60;38.60;;;;;;5095072;28;19908;-61
2022/02/19 09:39:06;;;;;;;;;;;18.60;38.60;;;;;;5095190;28;19931;-62
2022/02/19 09:41:32;;;;;;;;;;;18.70;38.60;;;;;;5094745;28;20318;-61
2022/02/19 09:44:01;;;;;;;;;;;18.60;38.50;;;;;;5094897;28;19917;-61
2022/02/19 09:46:27;;;;;;;;;;;18.70;38.60;;;;;;5094977;28;20385;-62
2022/02/19 09:48:54;;;;;;;;;;;18.70;38.60;;;;;;5094917;28;19912;-62
2022/02/19 09:51:19;;;;;;;;;;;18.70;38.50;;;;;;5094727;28;19908;-61
2022/02/19 09:53:44;;;;;;;;;;;18.70;38.60;;;;;;5094571;28;19909;-62
2022/02/19 09:56:10;;;;;;;;;;;18.70;38.50;;;;;;5094559;28;19942;-61
2022/02/19 09:58:37;;;;;;;;;;;18.70;38.50;;;;;;5094611;28;20385;-61
2022/02/19 10:01:19;;;;;;;;;;;18.70;38.50;;;;;;5094539;28;19912;-62
2022/02/19 10:03:45;;;;;;;;;;;18.70;38.50;;;;;;5094437;28;20023;-62
2022/02/19 10:06:12;;;;;;;;;;;18.70;38.50;;;;;;5093887;28;19942;-62
2022/02/19 10:08:38;;;;;;;;;;;18.70;38.40;;;;;;5094387;28;19928;-62
2022/02/19 10:11:03;;;;;;;;;;;18.80;38.40;;;;;;5094368;28;20000;-62
2022/02/19 10:13:36;;;;;;;;;;;18.80;38.40;;;;;;5094079;28;20022;-61
2022/02/19 10:16:03;;;;;;;;;;;18.80;38.30;;;;;;5075906;28;19930;-62
2022/02/19 10:18:31;;;;;;;;;;;18.80;38.20;;;;;;5094138;28;19915;-62
2022/02/19 10:21:13;;;;;;;;;;;18.80;38.30;;;;;;5075950;28;19908;-62
2022/02/19 10:23:41;;;;;;;;;;;18.80;38.30;;;;;;5093918;28;20391;-61
2022/02/19 10:26:06;;;;;;;;;;;18.90;38.20;;;;;;5093857;28;19908;-62
2022/02/19 10:28:32;;;;;;;;;;;18.90;38.20;;;;;;5093884;28;20014;-62
2022/02/19 10:31:14;;;;;;;;;;;18.90;38.10;;;;;;5093843;28;20429;-62
2022/02/19 10:33:39;;;;;;;;;;;18.90;38.20;;;;;;5093791;28;19908;-62
2022/02/19 10:36:12;;;;;;;;;;;19.00;38.10;;;;;;5093974;28;19915;-62
2022/02/19 10:38:51;;;;;;;;;;;19.00;38.20;;;;;;5075581;28;19908;-62
2022/02/19 10:41:17;;;;;;;;;;;19.00;38.20;;;;;;5075534;28;19912;-62
2022/02/19 10:43:43;;;;;;;;;;;19.00;38.20;;;;;;5093791;28;20439;-62
2022/02/19 10:46:09;;;;;;;;;;;19.00;38.10;;;;;;5093623;28;20303;-62
2022/02/19 10:48:35;;;;;;;;;;;19.10;38.00;;;;;;5075410;28;19912;-61
2022/02/19 10:51:14;;;;;;;;;;;19.00;38.10;;;;;;5093565;28;20382;-62
2022/02/19 10:53:40;;;;;;;;;;;19.00;38.10;;;;;;5075515;28;19915;-62
2022/02/19 10:56:18;;;;;;;;;;;19.00;38.10;;;;;;5093682;28;20220;-62
2022/02/19 10:59:04;;;;;;;;;;;19.00;38.10;;;;;;5093253;28;19947;-62
2022/02/19 11:01:37;;;;;;;;;;;19.00;38.10;;;;;;5093542;28;19912;-62
2022/02/19 11:04:03;;;;;;;;;;;19.00;38.10;;;;;;5093394;28;19916;-62
2022/02/19 11:06:28;;;;;;;;;;;19.00;38.10;;;;;;5093442;28;19953;-62
2022/02/19 11:08:54;;;;;;;;;;;19.00;38.20;;;;;;5075270;28;20043;-62
2022/02/19 11:11:20;;;;;;;;;;;18.90;38.20;;;;;;5093360;28;20005;-63
2022/02/19 11:13:46;;;;;;;;;;;18.90;38.20;;;;;;5074656;28;19908;-62
2022/02/19 11:16:11;;;;;;;;;;;18.90;38.20;;;;;;5073848;28;19909;-63
2022/02/19 11:18:36;;;;;;;;;;;19.00;38.10;;;;;;5093235;28;20318;-63
2022/02/19 11:21:03;;;;;;;;;;;19.10;37.90;;;;;;5093491;28;19939;-63
2022/02/19 11:23:29;;;;;;;;;;;19.20;37.80;;;;;;5093163;28;20027;-63
2022/02/19 11:25:57;;;;;;;;;;;19.20;37.70;;;;;;5093333;28;19919;-63
2022/02/19 11:28:23;;;;;;;;;;;19.20;37.60;;;;;;5093380;28;19912;-63
2022/02/19 11:30:51;;;;;;;;;;;19.30;37.50;;;;;;5093436;28;20352;-63
2022/02/19 11:33:17;;;;;;;;;;;19.30;37.40;;;;;;5093145;28;20011;-62
2022/02/19 11:35:43;;;;;;;;;;;19.40;37.40;;;;;;5093320;28;20406;-63
2022/02/19 11:38:25;;;;;;;;;;;19.50;37.30;;;;;;5093189;28;19931;-63
2022/02/19 11:40:51;;;;;;;;;;;19.50;37.20;;;;;;5093207;28;20275;-63
2022/02/19 11:43:52;;;;;;;;;;;19.60;37.10;;;;;;5093098;28;19970;-63
2022/02/19 11:46:24;;;;;;;;;;;19.70;37.00;;;;;;4991400;28;20651;-63
2022/02/19 11:48:50;;;;;;;;;;;19.80;36.90;;;;;;5075725;28;19908;-63
2022/02/19 11:51:17;;;;;;;;;;;19.70;37.00;;;;;;5074848;28;20377;-62
2022/02/19 11:53:44;;;;;;;;;;;19.80;37.00;;;;;;5093027;28;19943;-63
2022/02/19 11:56:11;;;;;;;;;;;19.80;37.00;;;;;;5093286;28;19984;-62
2022/02/19 11:59:03;;;;;;;;;;;19.80;36.90;;;;;;5093000;28;19947;-62
2022/02/19 12:01:29;;;;;;;;;;;19.80;37.00;;;;;;5093252;28;19964;-63
2022/02/19 12:04:16;;;;;;;;;;;19.80;36.90;;;;;;5092918;28;20388;-63
2022/02/19 12:06:43;;;;;;;;;;;19.80;36.90;;;;;;5092965;28;19908;-63
2022/02/19 12:09:13;;;;;;;;;;;19.80;36.80;;;;;;5093042;28;20002;-63
2022/02/19 12:11:56;;;;;;;;;;;19.80;36.90;;;;;;5092891;28;19922;-63
2022/02/19 12:14:40;;;;;;;;;;;19.80;37.00;;;;;;5093023;28;19950;-63
2022/02/19 12:17:09;;;;;;;;;;;19.80;37.00;;;;;;5093126;28;19942;-62
2022/02/19 12:19:54;;;;;;;;;;;19.70;36.90;;;;;;5074949;28;19973;-62
2022/02/19 12:22:38;;;;;;;;;;;19.70;36.90;;;;;;5092782;28;19923;-62
2022/02/19 12:25:05;;;;;;;;;;;19.70;37.00;;;;;;5074203;28;19922;-63
2022/02/19 12:27:31;;;;;;;;;;;19.60;37.10;;;;;;5093176;28;19908;-62
2022/02/19 12:30:15;;;;;;;;;;;19.60;37.10;;;;;;5096967;28;20355;-63
2022/02/19 12:32:44;;;;;;;;;;;19.50;37.20;;;;;;5096601;28;19908;-63
2022/02/19 12:35:10;;;;;;;;;;;19.50;37.30;;;;;;5096571;28;19908;-63
2022/02/19 12:37:36;;;;;;;;;;;19.50;37.40;;;;;;5096467;28;19922;-62
2022/02/19 12:40:01;;;;;;;;;;;19.40;37.50;;;;;;5096278;28;19953;-63
2022/02/19 12:42:29;;;;;;;;;;;19.40;37.60;;;;;;5095951;28;20330;-62
2022/02/19 12:45:04;;;;;;;;;;;19.40;37.60;;;;;;5096454;28;20271;-63
2022/02/19 12:47:30;;;;;;;;;;;19.30;37.60;;;;;;5096412;28;19916;-63
2022/02/19 12:49:55;;;;;;;;;;;19.30;37.70;;;;;;5077781;28;20324;-63
2022/02/19 12:52:21;;;;;;;;;;;19.30;37.70;;;;;;5096254;28;20007;-62
2022/02/19 12:54:49;;;;;;;;;;;19.20;37.80;;;;;;5096160;28;20292;-62
2022/02/19 12:57:16;;;;;;;;;;;19.20;37.70;;;;;;5095986;28;20505;-62
2022/02/19 12:59:42;;;;;;;;;;;19.20;37.70;;;;;;5095670;28;19970;-63
2022/02/19 13:02:08;;;;;;;;;;;19.20;37.80;;;;;;5095597;28;20024;-63
2022/02/19 13:04:35;;;;;;;;;;;19.20;37.70;;;;;;5095531;28;19908;-63
2022/02/19 13:07:01;;;;;;;;;;;19.20;37.70;;;;;;5095650;28;19961;-63
2022/02/19 13:09:27;;;;;;;;;;;19.20;37.70;;;;;;5095867;28;19966;-62
2022/02/19 13:11:53;;;;;;;;;;;19.20;37.60;;;;;;5095797;28;20340;-63
2022/02/19 13:14:20;;;;;;;;;;;19.20;37.60;;;;;;5077402;28;19908;-63
2022/02/19 13:17:14;;;;;;;;;;;19.20;37.60;;;;;;5077304;28;20002;-62
2022/02/19 13:19:40;;;;;;;;;;;19.20;37.60;;;;;;5073402;28;19954;-63
2022/02/19 13:22:09;;;;;;;;;;;19.10;37.70;;;;;;5077319;28;19908;-63
2022/02/19 13:24:36;;;;;;;;;;;19.20;37.60;;;;;;5095607;28;19916;-63
2022/02/19 13:27:11;;;;;;;;;;;19.20;37.70;;;;;;5095441;28;20008;-63
2022/02/19 13:29:36;;;;;;;;;;;19.20;37.70;;;;;;5095412;28;19908;-63
2022/02/19 13:32:05;;;;;;;;;;;19.20;37.60;;;;;;5095438;28;19931;-63
2022/02/19 13:34:37;;;;;;;;;;;19.20;37.60;;;;;;5095426;28;20416;-62
2022/02/19 13:37:03;;;;;;;;;;;19.10;37.60;;;;;;5095291;28;20279;-62
2022/02/19 13:39:36;;;;;;;;;;;19.20;37.60;;;;;;5094794;28;19953;-62
2022/02/19 13:42:01;;;;;;;;;;;19.10;37.60;;;;;;5095210;28;19915;-62
2022/02/19 13:44:28;;;;;;;;;;;19.10;37.60;;;;;;5095306;28;20002;-62
2022/02/19 13:46:54;;;;;;;;;;;19.20;37.60;;;;;;5095280;28;19909;-62
2022/02/19 13:49:20;;;;;;;;;;;19.10;37.60;;;;;;5095028;28;19915;-62
2022/02/19 13:51:46;;;;;;;;;;;19.10;37.60;;;;;;5095269;28;19912;-63
2022/02/19 13:54:16;;;;;;;;;;;19.10;37.60;;;;;;5095076;28;19976;-63
2022/02/19 13:56:42;;;;;;;;;;;19.10;37.60;;;;;;5094756;28;19908;-62
2022/02/19 13:59:07;;;;;;;;;;;19.10;37.60;;;;;;5094518;28;20378;-62
2022/02/19 14:01:42;;;;;;;;;;;19.10;37.60;;;;;;5094778;28;19912;-62
2022/02/19 14:04:07;;;;;;;;;;;19.10;37.50;;;;;;5094567;28;20290;-62
2022/02/19 14:06:37;;;;;;;;;;;19.10;37.50;;;;;;5094935;28;19909;-62
2022/02/19 14:09:20;;;;;;;;;;;19.10;37.60;;;;;;5094458;28;20377;-62
2022/02/19 14:11:51;;;;;;;;;;;19.10;37.60;;;;;;5094616;28;20437;-63
2022/02/19 14:14:26;;;;;;;;;;;19.10;37.50;;;;;;5094850;28;19908;-63
2022/02/19 14:17:01;;;;;;;;;;;19.10;37.60;;;;;;5094613;28;20197;-62
2022/02/19 14:19:26;;;;;;;;;;;19.10;37.60;;;;;;5094667;28;19916;-62
2022/02/19 14:22:01;;;;;;;;;;;19.10;37.60;;;;;;5094610;28;19915;-62